Time;durP1;ratioP1;P1;durP2;ratioP2;P2;SDS_P1;SDS_P2;PMS_P1;PMS_P2;Temp;Humidity;BMP_temperature;BMP_pressure;BME280_temperature;BME280_humidity;BME280_pressure;Samples;Min_cycle;Max_cycle;Signal;HPM_P1;HPM_P2
2022/06/23 00:02:07;;;;;;;9.50;6.55;;;14.00;99.90;;;;;;5049553;28;20052;-67
2022/06/23 00:04:38;;;;;;;8.75;6.65;;;14.00;99.90;;;;;;5052107;28;20601;-68
2022/06/23 00:07:06;;;;;;;10.75;7.07;;;14.00;99.90;;;;;;5048606;28;20041;-67
2022/06/23 00:09:44;;;;;;;9.55;7.00;;;14.00;99.90;;;;;;5048278;28;20448;-69
2022/06/23 00:12:19;;;;;;;13.32;6.65;;;14.00;99.90;;;;;;5046230;28;20380;-69
2022/06/23 00:14:48;;;;;;;8.00;6.15;;;13.90;99.90;;;;;;5039706;28;20488;-69
2022/06/23 00:17:36;;;;;;;8.60;6.70;;;13.90;99.90;;;;;;5039100;28;20061;-68
2022/06/23 00:20:18;;;;;;;9.65;7.30;;;13.90;99.90;;;;;;5046119;28;20045;-68
2022/06/23 00:22:54;;;;;;;11.55;6.90;;;13.90;99.90;;;;;;5037970;28;20041;-67
2022/06/23 00:25:22;;;;;;;10.27;6.20;;;13.90;99.90;;;;;;5043116;28;20059;-67
2022/06/23 00:27:48;;;;;;;11.63;7.05;;;13.90;99.90;;;;;;5042041;28;20524;-67
2022/06/23 00:30:40;;;;;;;10.20;7.20;;;13.90;99.90;;;;;;5057611;28;20088;-67
2022/06/23 00:33:14;;;;;;;12.07;7.13;;;13.80;99.90;;;;;;5041703;28;20057;-68
2022/06/23 00:35:40;;;;;;;9.68;7.05;;;13.90;99.90;;;;;;5051747;28;20471;-68
2022/06/23 00:38:21;;;;;;;10.93;7.20;;;13.90;99.90;;;;;;5041108;28;20072;-67
2022/06/23 00:40:47;;;;;;;9.10;6.90;;;13.80;99.90;;;;;;5042553;28;20399;-67
2022/06/23 00:43:13;;;;;;;9.52;7.25;;;13.80;99.90;;;;;;5043319;28;20118;-68
2022/06/23 00:45:59;;;;;;;8.32;6.95;;;13.80;99.90;;;;;;5038919;28;20041;-68
2022/06/23 00:48:42;;;;;;;9.52;7.00;;;13.80;99.90;;;;;;5044670;28;20491;-67
2022/06/23 00:51:36;;;;;;;9.52;7.28;;;13.80;99.90;;;;;;5048091;28;20037;-67
2022/06/23 00:54:09;;;;;;;9.50;7.28;;;13.80;99.90;;;;;;5038009;28;20480;-67
2022/06/23 00:56:44;;;;;;;9.50;7.25;;;13.80;99.90;;;;;;5035128;28;20045;-68
2022/06/23 00:59:50;;;;;;;8.70;6.50;;;13.80;99.90;;;;;;5041027;28;20131;-68
2022/06/23 01:02:42;;;;;;;10.55;7.28;;;13.80;99.90;;;;;;5049082;28;20422;-68
2022/06/23 01:05:30;;;;;;;9.48;8.02;;;13.80;99.90;;;;;;5052123;28;20064;-68
2022/06/23 01:08:05;;;;;;;10.88;8.00;;;13.70;99.90;;;;;;5048795;28;20102;-67
2022/06/23 01:10:57;;;;;;;10.15;7.88;;;13.70;99.90;;;;;;5039318;28;20044;-67
2022/06/23 01:13:46;;;;;;;10.73;8.32;;;13.80;99.90;;;;;;5043052;28;20059;-67
2022/06/23 01:16:27;;;;;;;11.30;8.40;;;13.80;99.90;;;;;;5046790;28;20046;-67
2022/06/23 01:19:12;;;;;;;10.38;8.02;;;13.70;99.90;;;;;;5045027;28;20060;-68
2022/06/23 01:21:45;;;;;;;11.73;7.70;;;13.70;99.90;;;;;;5036548;28;20044;-67
2022/06/23 01:24:20;;;;;;;13.85;8.05;;;13.70;99.90;;;;;;5054349;28;20556;-67
2022/06/23 01:27:02;;;;;;;11.25;8.20;;;13.70;99.90;;;;;;5046887;28;20103;-68
2022/06/23 01:29:41;;;;;;;12.07;8.43;;;13.60;99.90;;;;;;5043490;28;20054;-67
2022/06/23 01:32:16;;;;;;;9.38;8.15;;;13.60;99.90;;;;;;5037172;28;20110;-67
2022/06/23 01:34:50;;;;;;;12.80;7.60;;;13.60;99.90;;;;;;5043273;28;20073;-66
2022/06/23 01:37:52;;;;;;;11.20;8.73;;;13.60;99.90;;;;;;5039037;28;20046;-67
2022/06/23 01:40:41;;;;;;;11.02;7.85;;;13.60;99.90;;;;;;5046085;28;20103;-67
2022/06/23 01:43:22;;;;;;;11.70;8.07;;;13.60;99.90;;;;;;5043850;28;20251;-68
2022/06/23 01:45:55;;;;;;;11.85;8.40;;;13.50;99.90;;;;;;5033970;28;20037;-68
2022/06/23 01:48:57;;;;;;;11.07;7.80;;;13.50;99.90;;;;;;5045839;28;20045;-68
2022/06/23 01:51:38;;;;;;;11.40;9.25;;;13.50;99.90;;;;;;4990558;28;20046;-67
2022/06/23 01:54:11;;;;;;;11.85;8.45;;;13.50;99.90;;;;;;5039861;28;20049;-67
2022/06/23 01:57:02;;;;;;;10.63;8.82;;;13.50;99.90;;;;;;5032244;28;20049;-67
2022/06/23 01:59:45;;;;;;;17.75;9.15;;;13.50;99.90;;;;;;5046158;28;20038;-68
2022/06/23 02:02:10;;;;;;;13.93;9.35;;;13.40;99.90;;;;;;5038763;28;20056;-67
2022/06/23 02:04:54;;;;;;;11.27;8.25;;;13.40;99.90;;;;;;5047475;28;20049;-67
2022/06/23 02:07:36;;;;;;;13.55;8.65;;;13.40;99.90;;;;;;5067251;28;20076;-68
2022/06/23 02:10:17;;;;;;;12.85;9.57;;;13.40;99.90;;;;;;5050281;28;20437;-67
2022/06/23 02:12:51;;;;;;;11.95;8.68;;;13.40;99.90;;;;;;5022740;28;20037;-67
2022/06/23 02:15:34;;;;;;;11.93;8.85;;;13.40;99.90;;;;;;5039098;28;20051;-68
2022/06/23 02:18:18;;;;;;;11.35;9.00;;;13.40;99.90;;;;;;5065100;28;20037;-67
2022/06/23 02:21:00;;;;;;;12.18;9.13;;;13.40;99.90;;;;;;5048927;28;20116;-68
2022/06/23 02:23:31;;;;;;;11.27;8.60;;;13.30;99.90;;;;;;5044614;28;20053;-67
2022/06/23 02:26:11;;;;;;;14.55;9.75;;;13.40;99.90;;;;;;5042528;28;20049;-68
2022/06/23 02:29:21;;;;;;;11.77;8.55;;;13.30;99.90;;;;;;5038203;28;20049;-67
2022/06/23 02:31:51;;;;;;;12.80;9.18;;;13.30;99.90;;;;;;5075951;28;20044;-68
2022/06/23 02:34:22;;;;;;;12.63;8.98;;;13.30;99.90;;;;;;5084514;28;20036;-67
2022/06/23 02:37:00;;;;;;;13.00;9.15;;;13.40;99.90;;;;;;5068385;28;20136;-67
2022/06/23 02:39:38;;;;;;;14.57;10.20;;;13.40;99.90;;;;;;5040287;28;20182;-68
2022/06/23 02:42:22;;;;;;;11.70;9.18;;;13.40;99.90;;;;;;5044443;28;20037;-68
2022/06/23 02:44:59;;;;;;;14.82;9.65;;;13.30;99.90;;;;;;5036081;28;20073;-67
2022/06/23 02:47:48;;;;;;;13.15;9.55;;;13.30;99.90;;;;;;5041707;28;20052;-67
2022/06/23 02:50:43;;;;;;;15.13;10.47;;;13.30;99.90;;;;;;5045905;28;20431;-67
2022/06/23 02:53:18;;;;;;;15.27;9.40;;;13.30;99.90;;;;;;5051075;28;20072;-68
2022/06/23 02:55:52;;;;;;;12.38;9.45;;;13.30;99.90;;;;;;5048111;28;20049;-67
2022/06/23 02:58:35;;;;;;;12.40;9.35;;;13.30;99.90;;;;;;5041730;28;20095;-68
2022/06/23 03:01:03;;;;;;;13.75;9.50;;;13.20;99.90;;;;;;5040954;28;20179;-68
2022/06/23 03:03:54;;;;;;;14.38;9.32;;;13.20;99.90;;;;;;5043251;28;20045;-68
2022/06/23 03:06:46;;;;;;;15.05;9.70;;;13.20;99.90;;;;;;5041586;28;20049;-67
2022/06/23 03:09:23;;;;;;;12.45;9.45;;;13.20;99.90;;;;;;5045455;28;20051;-67
2022/06/23 03:11:52;;;;;;;13.75;10.73;;;13.20;99.90;;;;;;5045442;28;20083;-67
2022/06/23 03:14:43;;;;;;;13.52;9.45;;;13.20;99.90;;;;;;5055375;28;20041;-67
2022/06/23 03:17:15;;;;;;;13.88;9.48;;;13.20;99.90;;;;;;5049386;28;20037;-67
2022/06/23 03:20:06;;;;;;;15.13;9.82;;;13.10;99.90;;;;;;5055265;28;20037;-67
2022/06/23 03:22:36;;;;;;;13.63;10.40;;;13.20;99.90;;;;;;5034515;28;20045;-67
2022/06/23 03:25:29;;;;;;;16.88;10.05;;;13.10;99.90;;;;;;5036607;28;20079;-67
2022/06/23 03:28:19;;;;;;;13.18;10.10;;;13.20;99.90;;;;;;5043072;28;20045;-67
2022/06/23 03:30:50;;;;;;;14.38;9.98;;;13.20;99.90;;;;;;5064708;28;20038;-67
2022/06/23 03:33:34;;;;;;;14.73;9.90;;;13.20;99.90;;;;;;5053313;28;20069;-67
2022/06/23 03:36:30;;;;;;;15.07;9.75;;;13.20;99.90;;;;;;5041940;28;20042;-67
2022/06/23 03:42:39;;;;;;;15.80;10.50;;;13.20;99.90;;;;;;5033205;28;20139;-67
2022/06/23 03:45:10;;;;;;;13.48;9.63;;;13.20;99.90;;;;;;5048128;28;20045;-67
2022/06/23 03:48:10;;;;;;;16.02;10.52;;;13.20;99.90;;;;;;5041555;28;20522;-67
2022/06/23 03:50:47;;;;;;;17.92;10.95;;;13.20;99.90;;;;;;5035177;28;20041;-68
2022/06/23 03:53:19;;;;;;;16.45;10.85;;;13.30;99.90;;;;;;5054190;28;20118;-67
2022/06/23 03:56:06;;;;;;;18.10;10.75;;;13.20;99.90;;;;;;5051067;28;20051;-67
2022/06/23 03:58:43;;;;;;;16.17;11.10;;;13.30;99.90;;;;;;5051329;28;20451;-68
2022/06/23 04:01:11;;;;;;;14.70;10.30;;;13.30;99.90;;;;;;5052538;28;20197;-67
2022/06/23 04:03:45;;;;;;;15.90;11.30;;;13.30;99.90;;;;;;5058250;28;20057;-67
2022/06/23 04:06:19;;;;;;;16.80;10.77;;;13.30;99.90;;;;;;5036430;28;20060;-67
2022/06/23 04:08:57;;;;;;;18.10;11.60;;;13.30;99.90;;;;;;5036945;28;20430;-67
2022/06/23 04:11:43;;;;;;;16.17;11.27;;;13.30;99.90;;;;;;5051356;28;20077;-68
2022/06/23 04:14:23;;;;;;;16.98;10.77;;;13.40;99.90;;;;;;5043333;28;20110;-67
2022/06/23 04:16:55;;;;;;;14.73;10.75;;;13.40;99.90;;;;;;5060168;28;20183;-67
2022/06/23 04:19:26;;;;;;;16.25;11.52;;;13.40;99.90;;;;;;5056444;28;20067;-67
2022/06/23 04:22:00;;;;;;;16.52;11.45;;;13.50;99.90;;;;;;5054358;28;20087;-67
2022/06/23 04:24:27;;;;;;;16.73;12.05;;;13.50;99.90;;;;;;5043295;28;20506;-67
2022/06/23 04:26:56;;;;;;;18.17;11.63;;;13.50;99.90;;;;;;5049734;28;20435;-68
2022/06/23 04:29:36;;;;;;;13.77;10.65;;;13.50;99.90;;;;;;5052926;28;20049;-68
2022/06/23 04:32:19;;;;;;;15.70;11.00;;;13.50;99.90;;;;;;5040319;28;20064;-67
2022/06/23 04:34:56;;;;;;;19.35;12.50;;;13.60;99.90;;;;;;5046503;28;20049;-66
2022/06/23 04:37:40;;;;;;;15.40;10.90;;;13.60;99.90;;;;;;5053122;28;20075;-66
2022/06/23 04:40:20;;;;;;;17.38;11.68;;;13.60;99.90;;;;;;5043609;28;20092;-67
2022/06/23 04:42:53;;;;;;;19.27;10.82;;;13.70;99.90;;;;;;5040942;28;20057;-67
2022/06/23 04:45:35;;;;;;;16.40;11.27;;;13.70;99.90;;;;;;5048241;28;20504;-67
2022/06/23 04:48:05;;;;;;;19.60;11.45;;;13.70;99.90;;;;;;5053037;28;20041;-68
2022/06/23 04:50:43;;;;;;;16.17;12.18;;;13.80;99.90;;;;;;5018464;28;20053;-67
2022/06/23 04:53:22;;;;;;;15.23;11.38;;;13.80;99.90;;;;;;5044094;28;20036;-67
2022/06/23 04:56:02;;;;;;;16.30;11.38;;;13.90;99.90;;;;;;5047451;28;20386;-66
2022/06/23 04:58:29;;;;;;;14.68;10.93;;;13.90;99.90;;;;;;5048936;28;20037;-67
2022/06/23 05:00:55;;;;;;;15.82;11.23;;;14.00;99.90;;;;;;5049788;28;20037;-67
2022/06/23 05:03:48;;;;;;;16.92;11.50;;;14.00;99.90;;;;;;5048901;28;20071;-68
2022/06/23 05:06:19;;;;;;;16.45;11.35;;;14.10;99.90;;;;;;5041147;28;20567;-68
2022/06/23 05:08:47;;;;;;;18.30;11.98;;;14.20;99.90;;;;;;5038596;28;20138;-67
2022/06/23 05:11:31;;;;;;;;;;;14.30;99.90;;;;;;5054094;28;20048;-68
2022/06/23 05:14:02;;;;;;;18.52;11.10;;;14.30;99.90;;;;;;5039264;28;19931;-67
2022/06/23 05:16:43;;;;;;;16.42;11.18;;;14.40;99.90;;;;;;5050121;28;20128;-67
2022/06/23 05:19:12;;;;;;;13.75;10.40;;;14.50;99.90;;;;;;5043534;28;20077;-67
2022/06/23 05:21:45;;;;;;;16.92;11.30;;;14.60;99.90;;;;;;5051840;28;20110;-68
2022/06/23 05:24:24;;;;;;;14.65;10.85;;;14.70;99.90;;;;;;5051942;28;20041;-66
2022/06/23 05:27:06;;;;;;;15.38;10.75;;;14.80;99.90;;;;;;5048313;28;20045;-67
2022/06/23 05:29:42;;;;;;;17.58;10.80;;;14.80;99.90;;;;;;5050487;28;20115;-67
2022/06/23 05:32:26;;;;;;;16.20;10.57;;;14.90;99.90;;;;;;5043866;28;20053;-68
2022/06/23 05:35:13;;;;;;;14.30;10.70;;;15.00;99.90;;;;;;5054821;28;21176;-67
2022/06/23 05:37:57;;;;;;;19.17;10.43;;;15.10;99.90;;;;;;5041055;28;20088;-67
2022/06/23 05:40:48;;;;;;;14.15;11.02;;;15.10;99.90;;;;;;5038964;28;20041;-67
2022/06/23 05:43:15;;;;;;;16.80;10.57;;;15.30;99.90;;;;;;5051277;28;20041;-68
2022/06/23 05:45:48;;;;;;;14.60;10.38;;;15.30;99.90;;;;;;5044127;28;20037;-67
2022/06/23 05:48:21;;;;;;;20.88;11.00;;;15.40;99.90;;;;;;5053341;28;20044;-68
2022/06/23 05:50:56;;;;;;;14.57;9.88;;;15.50;99.90;;;;;;5044741;28;20494;-67
2022/06/23 05:53:36;;;;;;;13.75;10.55;;;15.70;99.90;;;;;;5047737;28;20045;-67
2022/06/23 05:56:17;;;;;;;14.38;10.75;;;15.80;99.90;;;;;;5046492;28;20041;-67
2022/06/23 05:58:54;;;;;;;13.43;9.98;;;15.90;99.90;;;;;;5053873;28;20052;-67
2022/06/23 06:01:32;;;;;;;14.68;10.60;;;16.00;99.90;;;;;;5051226;28;20055;-68
2022/06/23 06:04:01;;;;;;;16.33;10.40;;;16.10;99.90;;;;;;5049991;28;20052;-67
2022/06/23 06:06:27;;;;;;;15.10;11.02;;;16.20;99.90;;;;;;5049814;28;20126;-68
2022/06/23 06:11:47;;;;;;;19.50;10.77;;;16.30;99.90;;;;;;5037107;28;20049;-67
2022/06/23 06:14:17;;;;;;;14.95;10.27;;;16.40;99.90;;;;;;5049265;28;20119;-67
2022/06/23 06:16:43;;;;;;;14.02;9.82;;;16.80;99.90;;;;;;5044696;28;20375;-67
2022/06/23 06:19:17;;;;;;;13.70;9.00;;;17.20;99.90;;;;;;5052855;28;20040;-67
2022/06/23 06:21:46;;;;;;;18.92;10.00;;;17.30;99.90;;;;;;5052204;28;20045;-67
2022/06/23 06:24:22;;;;;;;15.82;10.18;;;17.40;99.90;;;;;;5039855;28;20483;-67
2022/06/23 06:26:51;;;;;;;14.30;9.77;;;17.40;99.90;;;;;;5041297;28;20037;-68
2022/06/23 06:29:26;;;;;;;13.10;9.43;;;17.40;99.90;;;;;;5039033;28;20695;-68
2022/06/23 06:32:02;;;;;;;13.52;9.45;;;17.40;99.90;;;;;;5049229;28;20052;-66
2022/06/23 06:34:37;;;;;;;15.05;10.07;;;17.40;99.90;;;;;;5037305;28;20056;-67
2022/06/23 06:37:08;;;;;;;15.68;9.77;;;17.50;99.90;;;;;;5054680;28;20044;-67
2022/06/23 06:39:42;;;;;;;17.88;9.25;;;17.50;99.90;;;;;;5047457;28;20045;-67
2022/06/23 06:42:30;;;;;;;19.17;10.73;;;17.60;99.90;;;;;;5046251;28;20036;-67
2022/06/23 06:45:01;;;;;;;16.20;10.67;;;17.70;99.90;;;;;;5052100;28;20588;-67
2022/06/23 06:47:30;;;;;;;14.95;9.23;;;17.80;99.90;;;;;;5050836;28;20459;-67
2022/06/23 06:50:02;;;;;;;15.48;9.07;;;17.90;99.90;;;;;;5049948;28;20033;-67
2022/06/23 06:52:29;;;;;;;13.75;8.65;;;18.00;99.90;;;;;;5046835;28;20068;-67
2022/06/23 06:55:04;;;;;;;11.13;8.45;;;18.20;99.90;;;;;;5044471;28;20045;-67
2022/06/23 06:58:10;;;;;;;15.07;8.40;;;18.30;99.90;;;;;;5051767;28;20549;-67
2022/06/23 07:01:04;;;;;;;16.40;8.75;;;18.40;99.90;;;;;;5022363;28;20049;-66
2022/06/23 07:03:34;;;;;;;13.35;7.88;;;18.60;99.90;;;;;;5026954;28;20056;-66
2022/06/23 07:06:39;;;;;;;22.23;8.70;;;18.70;99.90;;;;;;5032318;28;20103;-66
2022/06/23 07:09:26;;;;;;;17.23;8.70;;;18.80;99.90;;;;;;4990139;28;20519;-67
2022/06/23 07:12:09;;;;;;;15.95;8.60;;;18.80;99.90;;;;;;5047066;28;20048;-66
2022/06/23 07:14:38;;;;;;;14.68;8.82;;;19.00;99.90;;;;;;5049417;28;20100;-66
2022/06/23 07:17:14;;;;;;;13.57;8.65;;;19.00;99.90;;;;;;5038595;28;20048;-67
2022/06/23 07:19:48;;;;;;;13.20;8.20;;;19.10;99.90;;;;;;5051034;28;20120;-67
2022/06/23 07:22:29;;;;;;;14.13;7.75;;;19.30;99.90;;;;;;5068953;28;20049;-66
2022/06/23 07:25:20;;;;;;;12.38;7.72;;;19.40;99.90;;;;;;5051077;28;20052;-66
2022/06/23 07:28:02;;;;;;;15.88;7.90;;;19.60;99.90;;;;;;5049865;28;20103;-68
2022/06/23 07:30:33;;;;;;;14.00;8.00;;;19.80;99.90;;;;;;5048238;28;20088;-68
2022/06/23 07:33:15;;;;;;;13.98;8.25;;;19.90;99.90;;;;;;5049562;28;20084;-68
2022/06/23 07:35:55;;;;;;;15.50;8.45;;;20.00;99.90;;;;;;5051568;28;20064;-68
2022/06/23 07:38:30;;;;;;;15.65;7.88;;;20.20;99.90;;;;;;5041550;28;20064;-68
2022/06/23 07:41:24;;;;;;;12.77;7.75;;;20.30;99.90;;;;;;5041052;28;20049;-67
2022/06/23 07:44:08;;;;;;;14.85;7.05;;;20.40;99.90;;;;;;5054968;28;20457;-68
2022/06/23 07:46:37;;;;;;;9.93;7.63;;;20.50;99.90;;;;;;5062125;28;20064;-68
2022/06/23 07:49:03;;;;;;;9.82;6.90;;;20.60;99.90;;;;;;5063870;28;20131;-68
2022/06/23 07:51:29;;;;;;;9.70;7.47;;;20.80;99.90;;;;;;5049224;28;20051;-68
2022/06/23 07:53:56;;;;;;;11.73;7.22;;;20.90;99.90;;;;;;5048292;28;20037;-69
2022/06/23 07:56:25;;;;;;;13.45;6.80;;;21.00;99.90;;;;;;5049320;28;20049;-68
2022/06/23 07:58:55;;;;;;;10.27;6.90;;;21.10;99.90;;;;;;5054975;28;20045;-68
2022/06/23 08:01:47;;;;;;;10.10;6.63;;;21.10;99.90;;;;;;5064287;28;20053;-68
2022/06/23 08:04:18;;;;;;;10.27;6.55;;;21.30;99.90;;;;;;5058100;28;20123;-68
2022/06/23 08:06:45;;;;;;;12.30;7.35;;;21.50;99.90;;;;;;5065357;28;20063;-68
2022/06/23 08:09:26;;;;;;;10.70;7.10;;;21.60;99.90;;;;;;5066090;28;20041;-68
2022/06/23 08:14:44;;;;;;;11.35;6.78;;;21.80;99.90;;;;;;5053521;28;20049;-68
2022/06/23 08:17:15;;;;;;;11.07;6.38;;;21.90;99.90;;;;;;5054826;28;20044;-67
2022/06/23 08:19:41;;;;;;;11.30;6.53;;;22.00;99.90;;;;;;5054193;28;20041;-66
2022/06/23 08:22:28;;;;;;;13.57;6.43;;;22.20;99.90;;;;;;5065884;28;20075;-67
2022/06/23 08:24:57;;;;;;;9.43;6.18;;;22.30;99.90;;;;;;5055027;28;20049;-69
2022/06/23 08:27:28;;;;;;;13.98;6.25;;;22.40;99.90;;;;;;5053514;28;20053;-67
2022/06/23 08:30:08;;;;;;;8.60;5.15;;;22.50;99.90;;;;;;5050421;28;20037;-68
2022/06/23 08:32:38;;;;;;;9.18;5.45;;;22.70;99.90;;;;;;5052203;28;20045;-67
2022/06/23 08:35:09;;;;;;;11.32;6.32;;;22.70;99.90;;;;;;5070412;28;20406;-68
2022/06/23 08:37:43;;;;;;;8.52;6.05;;;22.80;99.90;;;;;;5053217;28;20044;-68
2022/06/23 08:40:26;;;;;;;11.10;5.55;;;22.80;99.90;;;;;;5046674;28;20052;-68
2022/06/23 08:43:20;;;;;;;11.38;6.00;;;23.10;99.90;;;;;;5061597;28;20049;-68
2022/06/23 08:45:57;;;;;;;9.32;5.53;;;23.10;99.90;;;;;;5053230;28;20051;-67
2022/06/23 08:48:49;;;;;;;8.65;5.88;;;23.30;99.90;;;;;;5053906;28;20489;-67
2022/06/23 08:51:38;;;;;;;8.45;5.65;;;23.40;99.90;;;;;;5054690;28;20045;-67
2022/06/23 08:54:18;;;;;;;9.88;5.28;;;23.50;99.90;;;;;;5035578;28;20077;-67
2022/06/23 08:56:51;;;;;;;11.93;5.57;;;23.60;99.90;;;;;;5035595;28;20042;-67
2022/06/23 08:59:48;;;;;;;9.43;5.55;;;23.70;99.90;;;;;;5035366;28;20050;-67
2022/06/23 09:02:20;;;;;;;7.95;5.53;;;23.80;99.90;;;;;;5043999;28;20049;-67
2022/06/23 09:04:52;;;;;;;9.32;4.93;;;24.00;99.90;;;;;;5054717;28;20053;-67
2022/06/23 09:07:41;;;;;;;16.20;5.53;;;24.10;99.90;;;;;;5051724;28;20049;-67
2022/06/23 09:10:16;;;;;;;14.38;5.78;;;24.20;99.90;;;;;;5069218;28;20569;-66
2022/06/23 09:13:00;;;;;;;12.05;4.70;;;24.10;99.90;;;;;;5054247;28;20048;-67
2022/06/23 09:15:32;;;;;;;10.63;4.78;;;24.30;99.70;;;;;;5037300;28;20056;-67
2022/06/23 09:18:26;;;;;;;10.93;4.22;;;24.40;99.60;;;;;;5053948;28;20108;-67
2022/06/23 09:21:24;;;;;;;6.78;4.03;;;24.50;99.40;;;;;;5052829;28;20049;-67
2022/06/23 09:24:04;;;;;;;9.02;4.00;;;24.70;98.10;;;;;;5040574;28;20057;-68
2022/06/23 09:26:56;;;;;;;6.35;4.28;;;24.80;98.30;;;;;;5043114;28;20129;-67
2022/06/23 09:29:28;;;;;;;6.80;4.30;;;25.00;98.30;;;;;;5053323;28;20060;-67
2022/06/23 09:32:16;;;;;;;7.72;4.15;;;25.10;97.20;;;;;;5043868;28;20049;-67
2022/06/23 09:35:20;;;;;;;;;;;25.10;97.60;;;;;;5033848;28;20053;-67
2022/06/23 09:38:07;;;;;;;7.63;3.53;;;25.30;97.00;;;;;;5021867;28;19925;-68
2022/06/23 09:40:33;;;;;;;9.38;3.63;;;25.40;94.80;;;;;;5008458;28;20041;-68
2022/06/23 09:43:14;;;;;;;8.07;4.20;;;25.50;95.40;;;;;;5033768;28;20053;-68
2022/06/23 09:46:20;;;;;;;5.85;3.38;;;25.70;94.00;;;;;;5058076;28;20107;-67
2022/06/23 09:49:16;;;;;;;6.32;3.10;;;25.80;93.30;;;;;;5034773;28;20052;-68
2022/06/23 09:51:57;;;;;;;7.53;3.47;;;25.90;94.10;;;;;;5061559;28;20136;-68
2022/06/23 09:54:54;;;;;;;9.70;3.33;;;26.00;94.60;;;;;;5035330;28;20045;-68
2022/06/23 09:57:28;;;;;;;8.65;2.97;;;26.10;94.40;;;;;;5036838;28;20049;-68
2022/06/23 10:00:11;;;;;;;7.65;3.33;;;26.20;93.60;;;;;;5043002;28;20499;-68
2022/06/23 10:03:07;;;;;;;7.35;3.03;;;26.30;92.70;;;;;;5046035;28;20053;-68
2022/06/23 10:05:41;;;;;;;4.85;3.10;;;26.40;92.30;;;;;;5051653;28;20053;-69
2022/06/23 10:08:15;;;;;;;6.38;2.88;;;26.50;91.60;;;;;;5069420;28;20577;-68
2022/06/23 10:11:08;;;;;;;13.70;3.33;;;26.60;91.70;;;;;;5053947;28;20048;-68
2022/06/23 10:13:56;;;;;;;7.20;3.05;;;26.70;90.30;;;;;;5046206;28;20056;-68
2022/06/23 10:16:52;;;;;;;5.97;2.67;;;26.80;90.00;;;;;;5033703;28;20049;-69
2022/06/23 10:19:46;;;;;;;8.85;2.97;;;27.00;87.80;;;;;;5037691;28;20061;-68
2022/06/23 10:22:29;;;;;;;6.97;2.80;;;27.10;83.50;;;;;;5042962;28;20049;-67
2022/06/23 10:25:25;;;;;;;12.43;2.80;;;27.20;85.20;;;;;;5045243;28;20110;-68
2022/06/23 10:28:14;;;;;;;6.50;2.80;;;27.30;86.40;;;;;;5031719;28;20049;-67
2022/06/23 10:30:58;;;;;;;9.35;2.90;;;27.60;86.50;;;;;;5036277;28;20080;-68
2022/06/23 10:33:37;;;;;;;5.65;2.25;;;27.70;83.80;;;;;;5063389;28;20064;-68
2022/06/23 10:36:15;;;;;;;5.88;2.53;;;27.90;83.90;;;;;;5042768;28;20053;-67
2022/06/23 10:39:28;;;;;;;6.07;2.47;;;28.20;81.70;;;;;;5034501;28;20041;-68
2022/06/23 10:42:12;;;;;;;5.47;2.33;;;28.30;75.50;;;;;;5008266;28;20053;-68
2022/06/23 10:44:55;;;;;;;8.38;2.40;;;28.50;74.80;;;;;;5040539;28;20041;-68
2022/06/23 10:47:59;;;;;;;6.68;2.20;;;28.50;75.00;;;;;;5044865;28;20101;-68
2022/06/23 10:50:43;;;;;;;6.65;2.50;;;28.70;71.70;;;;;;5043679;28;20064;-68
2022/06/23 10:53:15;;;;;;;7.80;2.53;;;28.80;73.60;;;;;;5041378;28;20049;-67
2022/06/23 10:55:53;;;;;;;4.22;2.22;;;29.00;71.70;;;;;;5051382;28;20076;-68
2022/06/23 10:58:34;;;;;;;4.32;2.33;;;29.20;70.30;;;;;;5045669;28;20041;-69
2022/06/23 11:01:11;;;;;;;5.55;2.40;;;29.40;70.10;;;;;;5044870;28;20087;-68
2022/06/23 11:03:58;;;;;;;5.38;2.38;;;29.40;69.00;;;;;;5039798;28;20053;-69
2022/06/23 11:06:48;;;;;;;6.35;2.22;;;29.50;70.00;;;;;;5041940;28;20048;-69
2022/06/23 11:09:42;;;;;;;8.45;2.67;;;29.60;70.50;;;;;;5046017;28;20048;-70
2022/06/23 11:12:36;;;;;;;7.80;2.42;;;29.70;68.50;;;;;;5043357;28;20037;-68
2022/06/23 11:15:10;;;;;;;7.85;2.60;;;30.10;65.30;;;;;;5045927;28;20049;-68
2022/06/23 11:17:57;;;;;;;5.10;2.80;;;30.30;68.00;;;;;;5035949;28;20053;-68
2022/06/23 11:20:44;;;;;;;5.25;2.25;;;30.50;65.30;;;;;;5034088;28;20057;-68
2022/06/23 11:23:23;;;;;;;5.68;2.25;;;30.60;66.50;;;;;;5036280;28;20046;-69
2022/06/23 11:26:22;;;;;;;5.57;2.38;;;30.70;63.80;;;;;;5039204;28;20052;-68
2022/06/23 11:29:04;;;;;;;6.07;2.50;;;30.90;64.90;;;;;;5048559;28;20509;-68
2022/06/23 11:31:35;;;;;;;5.07;2.28;;;30.90;64.10;;;;;;5048933;28;20076;-69
2022/06/23 11:34:33;;;;;;;6.75;2.40;;;31.00;64.60;;;;;;5042443;28;20106;-68
2022/06/23 11:37:29;;;;;;;3.90;2.50;;;31.00;64.20;;;;;;5058769;28;20067;-68
2022/06/23 11:40:15;;;;;;;10.50;3.22;;;31.00;63.90;;;;;;5061695;28;20533;-69
2022/06/23 11:42:49;;;;;;;6.03;2.38;;;31.30;62.90;;;;;;5038249;28;20099;-68
2022/06/23 11:45:53;;;;;;;8.90;2.40;;;31.40;63.50;;;;;;5052070;28;20044;-68
2022/06/23 11:48:40;;;;;;;7.13;2.50;;;31.40;62.00;;;;;;5039932;28;20047;-69
2022/06/23 11:51:29;;;;;;;4.78;2.53;;;31.50;62.20;;;;;;5038181;28;20053;-68
2022/06/23 11:54:18;;;;;;;8.45;2.67;;;31.60;61.20;;;;;;5032494;28;20050;-68
2022/06/23 11:57:03;;;;;;;6.85;2.78;;;31.60;60.40;;;;;;5048552;28;20067;-68
2022/06/23 12:00:09;;;;;;;5.35;2.40;;;31.40;61.90;;;;;;5055110;28;20056;-68
2022/06/23 12:02:58;;;;;;;6.05;2.50;;;31.30;61.70;;;;;;5035197;28;20072;-68
2022/06/23 12:05:37;;;;;;;4.05;2.53;;;31.40;62.20;;;;;;5038609;28;20065;-68
2022/06/23 12:08:18;;;;;;;4.57;2.42;;;31.50;60.80;;;;;;5063859;28;20044;-68
2022/06/23 12:10:44;;;;;;;7.78;3.08;;;31.50;61.00;;;;;;5049895;28;20049;-68
2022/06/23 12:13:11;;;;;;;4.80;2.13;;;31.50;60.60;;;;;;5050283;28;20628;-68
2022/06/23 12:15:47;;;;;;;4.15;2.17;;;31.60;60.60;;;;;;5051103;28;20100;-69
2022/06/23 12:18:30;;;;;;;5.28;2.38;;;31.50;61.00;;;;;;5047749;28;20037;-69
2022/06/23 12:21:22;;;;;;;7.75;2.33;;;31.70;58.50;;;;;;5067727;28;20131;-68
2022/06/23 12:23:50;;;;;;;6.50;2.50;;;31.70;58.60;;;;;;5068296;28;20507;-67
2022/06/23 12:26:36;;;;;;;5.95;2.15;;;31.70;59.20;;;;;;5038434;28;20529;-68
2022/06/23 12:29:37;;;;;;;4.03;2.40;;;31.70;58.20;;;;;;5045744;28;20515;-68
2022/06/23 12:32:21;;;;;;;4.55;2.03;;;31.70;58.20;;;;;;5046423;28;20124;-68
2022/06/23 12:35:02;;;;;;;6.32;2.20;;;31.70;58.40;;;;;;5048004;28;20059;-68
2022/06/23 12:37:42;;;;;;;6.72;1.80;;;31.90;57.60;;;;;;5052018;28;20055;-67
2022/06/23 12:40:23;;;;;;;6.82;2.60;;;32.10;56.60;;;;;;5059387;28;20101;-67
2022/06/23 12:42:57;;;;;;;3.78;1.98;;;32.10;55.90;;;;;;5046330;28;20049;-68
2022/06/23 12:45:26;;;;;;;9.05;2.10;;;32.30;57.00;;;;;;5043976;28;20055;-68
2022/06/23 12:47:51;;;;;;;7.88;2.10;;;32.30;55.70;;;;;;5051689;28;20076;-68
2022/06/23 12:50:17;;;;;;;9.48;2.15;;;32.30;56.20;;;;;;5046942;28;20133;-68
2022/06/23 12:53:04;;;;;;;6.03;2.30;;;32.40;56.60;;;;;;5050435;28;20052;-68
2022/06/23 12:55:33;;;;;;;7.47;2.42;;;32.50;55.40;;;;;;5052632;28;20151;-67
2022/06/23 12:58:23;;;;;;;6.28;2.13;;;32.60;56.10;;;;;;5051416;28;20133;-67
2022/06/23 13:00:52;;;;;;;6.57;2.33;;;32.70;56.00;;;;;;5056291;28;20470;-67
2022/06/23 13:03:21;;;;;;;4.07;2.10;;;32.90;55.40;;;;;;5049149;28;20782;-68
2022/06/23 13:06:16;;;;;;;6.53;1.98;;;33.00;55.20;;;;;;5044347;28;20072;-67
2022/06/23 13:09:02;;;;;;;8.00;2.25;;;33.00;54.10;;;;;;5042705;28;20064;-69
2022/06/23 13:12:08;;;;;;;8.52;2.20;;;33.10;54.70;;;;;;5062989;28;20226;-67
2022/06/23 13:14:59;;;;;;;6.10;1.85;;;33.20;54.60;;;;;;5040201;28;20052;-67
2022/06/23 13:17:40;;;;;;;3.22;1.98;;;33.30;55.10;;;;;;5050301;28;20045;-68
2022/06/23 13:20:48;;;;;;;9.60;2.92;;;33.40;54.60;;;;;;5051237;28;20048;-69
2022/06/23 13:23:15;;;;;;;8.43;2.10;;;33.40;53.20;;;;;;5021409;28;20497;-67
2022/06/23 13:26:25;;;;;;;5.47;2.00;;;33.30;54.80;;;;;;5045798;28;20099;-68
2022/06/23 13:29:22;;;;;;;3.90;1.80;;;33.40;54.30;;;;;;5042597;28;20056;-68
2022/06/23 13:31:58;;;;;;;5.30;2.30;;;33.60;53.00;;;;;;5043693;28;20163;-68
2022/06/23 13:34:35;;;;;;;3.83;2.13;;;33.70;53.30;;;;;;5050185;28;20052;-68
2022/06/23 13:37:19;;;;;;;;;;;33.70;51.40;;;;;;5066410;28;20048;-68
2022/06/23 13:40:07;;;;;;;4.68;1.90;;;33.60;51.80;;;;;;5035165;28;19924;-68
2022/06/23 13:42:52;;;;;;;4.60;2.10;;;33.70;53.80;;;;;;5056346;28;20037;-67
2022/06/23 13:46:01;;;;;;;7.72;2.20;;;33.70;53.80;;;;;;5066369;28;20410;-68
2022/06/23 13:48:34;;;;;;;;;;;33.90;52.90;;;;;;5058721;28;20099;-70
2022/06/23 13:51:06;;;;;;;4.97;2.33;;;34.00;52.40;;;;;;5046412;28;19925;-68
2022/06/23 13:54:11;;;;;;;4.75;1.70;;;34.20;52.90;;;;;;5035038;28;20072;-69
2022/06/23 13:57:08;;;;;;;5.05;1.88;;;34.30;52.80;;;;;;5016554;28;20049;-69
2022/06/23 13:59:53;;;;;;;4.93;1.85;;;34.50;52.20;;;;;;5043651;28;20097;-69